createdAt,value
2019-06-01T00:01:07.994Z,13.97
2019-06-01T00:06:16.903Z,24.99
2019-06-01T00:11:25.924Z,14.77
2019-06-01T00:16:34.840Z,11.18
2019-06-01T00:21:43.767Z,13.50
2019-06-01T00:26:52.688Z,8.97
2019-06-01T00:32:01.647Z,8.54
2019-06-01T00:37:10.566Z,7.76
2019-06-01T00:42:20.363Z,7.68
2019-06-01T00:47:29.294Z,8.83
2019-06-01T00:52:38.251Z,6.61
2019-06-01T00:57:47.547Z,5.16
2019-06-01T01:02:55.759Z,4.74
2019-06-01T01:08:04.676Z,5.38
2019-06-01T01:13:13.736Z,4.63
2019-06-01T01:18:22.690Z,5.14
2019-06-01T01:23:31.658Z,3.92
2019-06-01T01:28:40.617Z,3.57
2019-06-01T01:33:49.590Z,3.77
2019-06-01T01:38:58.540Z,3.66
2019-06-01T01:44:07.567Z,3.58
2019-06-01T01:49:16.511Z,3.68
2019-06-01T01:54:25.520Z,2.90
2019-06-01T01:59:34.443Z,2.89
2019-06-01T02:04:43.452Z,5.31
2019-06-01T02:09:53.224Z,8.80
2019-06-01T02:15:02.163Z,10.51
2019-06-01T02:20:09.387Z,11.91
2019-06-01T02:25:18.375Z,10.46
2019-06-01T02:30:27.308Z,8.09
2019-06-01T02:35:36.225Z,9.10
2019-06-01T02:40:45.166Z,6.07
2019-06-01T02:45:54.163Z,6.72
2019-06-01T02:51:04.029Z,5.66
2019-06-01T02:56:12.555Z,5.20
2019-06-01T03:01:21.482Z,5.23
2019-06-01T03:06:30.434Z,6.94
2019-06-01T03:11:39.457Z,5.24
2019-06-01T03:16:48.354Z,4.30
2019-06-01T03:21:57.325Z,4.13
2019-06-01T03:27:06.387Z,4.04
2019-06-01T03:32:33.773Z,3.94
2019-06-01T03:37:23.778Z,4.37
2019-06-01T03:42:32.939Z,4.06
2019-06-01T03:47:41.900Z,4.21
2019-06-01T03:52:50.891Z,4.69
2019-06-01T03:58:00.903Z,4.31
2019-06-01T04:03:09.185Z,4.16
2019-06-01T04:08:17.061Z,3.97
2019-06-01T04:13:26.091Z,3.78
2019-06-01T04:18:35.045Z,4.27
2019-06-01T04:23:44.023Z,4.08
2019-06-01T04:28:52.954Z,3.58
2019-06-01T04:34:02.487Z,3.82
2019-06-01T04:39:11.558Z,4.92
2019-06-01T04:44:18.835Z,5.05
2019-06-01T04:49:27.848Z,5.09
2019-06-01T04:54:36.774Z,4.46
2019-06-01T04:59:45.732Z,4.25
2019-06-01T05:04:54.655Z,4.58
2019-06-01T05:10:03.619Z,5.37
2019-06-01T05:15:13.731Z,5.13
2019-06-01T05:20:21.090Z,5.70
2019-06-01T05:25:30.020Z,4.79
2019-06-01T05:30:39.019Z,4.78
2019-06-01T05:35:47.954Z,5.67
2019-06-01T05:40:56.885Z,5.02
2019-06-01T05:46:05.816Z,4.70
2019-06-01T05:51:16.952Z,4.48
2019-06-01T05:56:23.248Z,4.85
2019-06-01T06:01:32.260Z,4.19
2019-06-01T06:06:41.179Z,3.92
2019-06-01T06:11:53.697Z,3.56
2019-06-01T06:16:58.646Z,3.81
2019-06-01T06:22:07.661Z,3.51
2019-06-01T06:27:16.574Z,3.45
2019-06-01T06:32:25.547Z,3.57
2019-06-01T06:37:34.483Z,3.75
2019-06-01T06:42:43.503Z,3.65
2019-06-01T06:47:52.450Z,3.91
2019-06-01T06:53:01.482Z,4.01
2019-06-01T06:58:10.400Z,3.94
2019-06-01T07:03:19.417Z,3.97
2019-06-01T07:08:28.337Z,3.98
2019-06-01T07:13:37.839Z,4.41
2019-06-01T07:18:46.796Z,3.94
2019-06-01T07:23:55.863Z,4.36
2019-06-01T07:29:04.807Z,3.29
2019-06-01T07:34:29.884Z,3.83
2019-06-01T07:39:22.654Z,4.21
2019-06-01T07:44:30.755Z,3.37
2019-06-01T07:49:39.707Z,3.30
2019-06-01T07:54:49.063Z,4.52
2019-06-01T07:59:57.989Z,3.19
2019-06-01T08:05:06.930Z,3.59
2019-06-01T08:10:15.868Z,3.07
2019-06-01T08:15:25.649Z,2.88
2019-06-01T08:20:33.282Z,3.07
2019-06-01T08:25:42.243Z,3.21
2019-06-01T08:30:51.172Z,5.01
2019-06-01T08:36:00.122Z,3.07
2019-06-01T08:41:09.047Z,2.60
2019-06-01T08:46:17.999Z,2.57
2019-06-01T08:51:28.127Z,2.74
2019-06-01T08:56:35.398Z,2.85
2019-06-01T09:01:44.345Z,2.91
2019-06-01T09:06:53.274Z,2.93
2019-06-01T09:12:02.282Z,2.57
2019-06-01T09:17:11.261Z,3.19
2019-06-01T09:22:20.212Z,2.78
2019-06-01T09:27:29.746Z,3.27
2019-06-01T09:32:37.786Z,3.85
2019-06-01T09:37:46.699Z,2.96
2019-06-01T09:42:55.962Z,2.73
2019-06-01T09:48:04.928Z,2.57
2019-06-01T09:53:13.878Z,2.96
2019-06-01T09:58:22.835Z,3.02
2019-06-01T10:03:32.470Z,2.72
2019-06-01T10:08:40.298Z,2.91
2019-06-01T10:13:49.243Z,3.18
2019-06-01T10:18:58.201Z,3.16
2019-06-01T10:24:07.160Z,2.94
2019-06-01T10:29:16.096Z,3.61
2019-06-01T10:34:25.068Z,3.15
2019-06-01T10:39:35.167Z,3.09
2019-06-01T10:44:45.609Z,2.92
2019-06-01T10:49:51.350Z,3.15
2019-06-01T10:55:00.374Z,3.07
2019-06-01T11:00:09.383Z,1.97
2019-06-01T11:05:18.409Z,3.50
2019-06-01T11:10:27.346Z,3.04
2019-06-01T11:15:36.982Z,2.53
2019-06-01T11:20:44.787Z,2.21
2019-06-01T11:25:54.146Z,2.11
2019-06-01T11:31:03.096Z,2.63
2019-06-01T11:36:12.121Z,2.54
2019-06-01T11:41:21.020Z,2.46
2019-06-01T11:46:29.975Z,2.03
2019-06-01T11:56:41.597Z,1.87
2019-06-01T12:01:50.541Z,1.84
2019-06-01T12:07:16.218Z,2.59
2019-06-01T12:12:07.990Z,1.58
2019-06-01T12:17:16.999Z,2.10
2019-06-01T12:22:25.927Z,1.73
2019-06-01T12:27:39.606Z,1.85
2019-06-01T12:32:37.994Z,1.65
2019-06-01T12:38:02.771Z,1.26
2019-06-01T12:42:54.647Z,1.43
2019-06-01T12:48:04.621Z,1.25
2019-06-01T12:53:13.552Z,1.02
2019-06-01T12:58:22.563Z,1.15
2019-06-01T13:03:31.577Z,1.06
2019-06-01T13:08:40.671Z,1.07
2019-06-01T13:13:49.510Z,1.05
2019-06-01T13:18:58.583Z,1.00
2019-06-01T13:24:07.583Z,1.12
2019-06-01T13:29:16.567Z,0.84
2019-06-01T13:34:25.590Z,0.90
2019-06-01T13:39:34.548Z,0.84
2019-06-01T13:44:43.483Z,0.75
2019-06-01T13:49:54.021Z,0.88
2019-06-01T13:55:00.945Z,0.69
2019-06-01T14:00:09.995Z,0.83
2019-06-01T14:05:18.934Z,0.66
2019-06-01T14:10:27.891Z,0.99
2019-06-01T14:15:36.811Z,0.91
2019-06-01T14:20:45.796Z,0.52
2019-06-01T14:25:56.398Z,0.62
2019-06-01T14:31:04.375Z,0.53
2019-06-01T14:36:13.339Z,0.66
2019-06-01T14:41:22.315Z,0.64
2019-06-01T14:46:31.268Z,0.52
2019-06-01T14:51:40.263Z,0.66
2019-06-01T14:56:49.728Z,0.56
2019-06-01T15:01:58.397Z,0.68
2019-06-01T15:07:06.146Z,0.73
2019-06-01T15:12:15.139Z,0.67
2019-06-01T15:17:24.054Z,0.43
2019-06-01T15:22:33.063Z,0.47
2019-06-01T15:27:41.999Z,0.46
2019-06-01T15:32:51.912Z,0.59
2019-06-01T15:38:02.059Z,0.46
2019-06-01T15:43:08.027Z,0.52
2019-06-01T15:48:16.986Z,0.52
2019-06-01T15:53:25.927Z,0.59
2019-06-01T15:58:49.318Z,0.43
2019-06-01T16:03:43.719Z,0.56
2019-06-01T16:08:53.236Z,0.57
2019-06-01T16:14:01.798Z,0.64
2019-06-01T16:19:09.657Z,0.64
2019-06-01T16:24:18.663Z,0.58
2019-06-01T16:29:27.596Z,0.52
2019-06-01T16:34:36.560Z,0.52
2019-06-01T16:39:58.281Z,0.50
2019-06-01T16:44:55.236Z,0.55
2019-06-01T16:50:03.805Z,0.53
2019-06-01T16:55:10.883Z,0.55
2019-06-01T17:00:19.948Z,0.65
2019-06-01T17:05:28.822Z,0.65
2019-06-01T17:10:37.795Z,0.77
2019-06-01T17:15:46.731Z,0.79
2019-06-01T17:20:57.163Z,0.56
2019-06-01T17:26:04.513Z,0.54
2019-06-01T17:31:13.490Z,0.50
2019-06-01T17:36:22.411Z,0.56
2019-06-01T17:41:31.415Z,0.49
2019-06-01T17:46:53.128Z,0.52
2019-06-01T17:51:49.271Z,0.62
2019-06-01T17:56:58.651Z,0.57
2019-06-01T18:02:07.973Z,0.91
2019-06-01T18:07:16.580Z,1.77
2019-06-01T18:12:25.537Z,1.85
2019-06-01T18:17:34.459Z,1.88
2019-06-01T18:22:43.764Z,1.94
2019-06-01T18:27:52.701Z,1.89
2019-06-01T18:33:03.096Z,2.07
2019-06-01T18:38:01.944Z,1.78
2019-06-01T18:43:12.047Z,1.49
2019-06-01T18:48:19.390Z,1.65
2019-06-01T18:53:28.339Z,1.78
2019-06-01T18:58:37.277Z,1.53
2019-06-01T19:03:46.338Z,1.58
2019-06-01T19:08:55.273Z,1.53
2019-06-01T19:14:05.583Z,1.15
2019-06-01T19:19:12.722Z,1.39
2019-06-01T19:24:21.667Z,1.44
2019-06-01T19:29:30.600Z,1.36
2019-06-01T19:34:39.845Z,1.42
2019-06-01T19:39:48.858Z,1.43
2019-06-01T19:44:57.827Z,1.70
2019-06-01T19:50:07.929Z,1.40
2019-06-01T19:55:15.253Z,1.43
2019-06-01T20:00:24.186Z,1.41
2019-06-01T20:05:33.154Z,1.43
2019-06-01T20:10:43.201Z,1.48
2019-06-01T20:15:42.138Z,1.48
2019-06-01T20:20:52.174Z,1.34
2019-06-01T20:25:51.170Z,1.47
2019-06-01T20:31:00.076Z,1.41
2019-06-01T20:36:09.074Z,1.59
2019-06-01T20:41:18.668Z,1.62
2019-06-01T20:46:26.543Z,1.76
2019-06-01T20:51:35.459Z,1.78
2019-06-01T20:56:44.395Z,1.68
2019-06-01T21:01:53.404Z,1.73
2019-06-01T21:07:02.335Z,1.70
2019-06-01T21:12:11.339Z,2.07
2019-06-01T21:17:20.696Z,2.04
2019-06-01T21:22:28.751Z,1.90
2019-06-01T21:27:37.691Z,1.95
2019-06-01T21:32:46.635Z,2.09
2019-06-01T21:37:55.578Z,2.32
2019-06-01T21:43:23.152Z,2.52
2019-06-01T21:48:13.040Z,2.45
2019-06-01T21:53:22.127Z,2.76
2019-06-01T21:58:30.910Z,2.96
2019-06-01T22:03:39.867Z,3.89
2019-06-01T22:08:52.633Z,3.60
2019-06-01T22:14:00.227Z,3.04
2019-06-01T22:18:59.161Z,4.09
2019-06-01T22:24:08.513Z,5.15
2019-06-01T22:29:18.527Z,5.64
2019-06-01T22:34:18.564Z,4.40
2019-06-01T22:39:27.081Z,3.75
2019-06-01T22:44:26.249Z,4.89
2019-06-01T22:49:51.171Z,4.51
2019-06-01T22:54:40.169Z,5.26
2019-06-01T22:59:54.140Z,5.40
2019-06-01T23:04:51.258Z,5.73
2019-06-01T23:10:01.290Z,6.36
2019-06-01T23:15:00.314Z,6.62
2019-06-01T23:20:10.253Z,4.51
2019-06-01T23:25:19.194Z,5.05
2019-06-01T23:30:28.353Z,5.00
2019-06-01T23:35:37.076Z,4.41
2019-06-01T23:40:46.027Z,3.97
2019-06-01T23:45:56.007Z,3.78
2019-06-01T23:51:04.976Z,3.83
2019-06-01T23:56:14.914Z,3.87
